Newport Beach, CA (92662)

11:01 PM PDT on August 27, 2016 (GMT -0700)
Irvine Terrace | | Change Station

Elev 23 ft 33.60 °N, 117.88 °W | Updated 6 minutes ago

Clear
Clear
66.2 °F
Feels Like 66.2 °F
N
0.0
Wind Variable Wind from NW
Gusts 6.0 mph

Today
High -- | Low -- °F
--% Chance of Precip.
Yesterday
High -- | Low -- °F
Precip. -- in
Pressure 29.98 in
Visibility 10.0 miles
Clouds Clear
Dew Point 62 °F
Humidity 86%
Rainfall 0.00 in
Snow Depth Not available.
6:22 AM 7:22 PM
Waning Crescent, 18% visible
METAR KSNA 280553Z 25003KT 10SM CLR 20/16 A2999 RMK AO2 SLP152 T02000161 10233 20200 51012
Pressure 29.98 in
Visibility 10.0 miles
Clouds Clear
Dew Point 62 °F
Humidity 86%
Rainfall 0.00 in
Snow Depth Not available.
6:22 AM 7:22 PM
Waning Crescent, 18% visible
METAR KSNA 280553Z 25003KT 10SM CLR 20/16 A2999 RMK AO2 SLP152 T02000161 10233 20200 51012

10-Day Weather Forecast

Almanac

Astronomy

Aug. 27, 2016 Rise Set
Actual Time
Civil Twilight
Nautical Twilight
Astronomical Twilight
Moon
Length of Visible Light
Length of Day
Tomorrow will be .
, % of the Moon is Illuminated

Today's Extremes

State Highs State Lows

Community

WunderPhotos

Upload Photos

1,935,533 photos uploaded!

WunderBlog® & News

Nearby

Air Quality

  Air Quality AQ Index Pollutant
Not available.

Snow Depth

Station Depth Elevation

Earthquake Activity

City Distance Mag. Time & Date
Minimum magnitude displayed is 2.5.

Coastal Water Temperatures

Place Temperature

Stations

Nearby Weather Stations

Station Location Temp. Windchill Dew Point Humidity Wind Precip. Elev Updated Type
                   

Watches & Warnings

There are currently no watches in effect.